createdAt,value
2023-05-08T00:03:02.073Z,2.55
2023-05-08T00:08:05.962Z,2.13
2023-05-08T00:13:09.328Z,2.47
2023-05-08T00:18:14.087Z,2.33
2023-05-08T00:23:17.458Z,2.33
2023-05-08T00:28:21.691Z,2.60
2023-05-08T00:33:26.454Z,2.78
2023-05-08T00:38:31.621Z,2.50
2023-05-08T00:43:35.860Z,5.53
2023-05-08T00:48:41.649Z,4.72
2023-05-08T00:53:45.562Z,4.45
2023-05-08T00:58:49.104Z,4.55
2023-05-08T01:03:54.228Z,4.45
2023-05-08T01:08:57.670Z,3.55
2023-05-08T01:14:10.156Z,3.47
2023-05-08T01:19:42.923Z,3.05
2023-05-08T01:25:25.435Z,3.22
2023-05-08T01:30:50.771Z,3.20
2023-05-08T01:36:01.814Z,4.10
2023-05-08T01:41:11.663Z,3.60
2023-05-08T01:46:20.995Z,4.27
2023-05-08T01:51:29.175Z,4.60
2023-05-08T01:56:33.657Z,4.43
2023-05-08T02:01:37.807Z,4.53
2023-05-08T02:06:43.319Z,4.63
2023-05-08T02:11:48.526Z,4.55
2023-05-08T02:16:58.402Z,4.72
2023-05-08T02:22:05.214Z,4.47
2023-05-08T02:27:10.528Z,4.53
2023-05-08T02:32:16.351Z,4.72
2023-05-08T02:37:23.711Z,4.57
2023-05-08T02:42:27.869Z,4.93
2023-05-08T02:47:40.556Z,4.47
2023-05-08T02:52:50.958Z,4.40
2023-05-08T02:58:06.025Z,5.10
2023-05-08T03:03:16.613Z,5.13
2023-05-08T03:08:26.278Z,5.25
2023-05-08T03:13:32.523Z,5.67
2023-05-08T03:18:42.604Z,6.55
2023-05-08T03:23:49.100Z,6.60
2023-05-08T03:28:54.951Z,8.48
2023-05-08T03:34:04.227Z,9.55
2023-05-08T03:39:09.567Z,9.48
2023-05-08T03:44:14.221Z,9.43
2023-05-08T03:49:19.316Z,8.38
2023-05-08T03:54:25.689Z,8.43
2023-05-08T03:59:39.708Z,7.55
2023-05-08T04:04:46.630Z,7.32
2023-05-08T04:10:01.381Z,6.55
2023-05-08T04:15:10.343Z,5.13
2023-05-08T04:25:23.779Z,4.57
2023-05-08T04:30:27.940Z,4.68
2023-05-08T04:35:32.076Z,4.85
2023-05-08T04:40:37.205Z,4.45
2023-05-08T04:45:41.001Z,5.07
2023-05-08T04:50:44.591Z,4.00
2023-05-08T04:55:49.558Z,3.97
2023-05-08T05:00:53.212Z,3.90
2023-05-08T05:06:01.641Z,4.30
2023-05-08T05:11:06.991Z,9.00
2023-05-08T05:16:10.810Z,5.07
2023-05-08T05:21:14.762Z,5.38
2023-05-08T05:26:20.263Z,5.68
2023-05-08T05:31:24.218Z,4.97
2023-05-08T05:36:27.973Z,4.22
2023-05-08T05:41:34.296Z,4.40
2023-05-08T05:46:38.534Z,4.47
2023-05-08T05:51:43.247Z,5.00
2023-05-08T05:56:48.714Z,4.60
2023-05-08T06:01:52.769Z,5.82
2023-05-08T06:06:57.025Z,4.63
2023-05-08T06:12:02.348Z,5.50
2023-05-08T06:17:07.147Z,4.60
2023-05-08T06:22:11.236Z,3.95
2023-05-08T06:27:16.676Z,4.03
2023-05-08T06:32:23.448Z,4.43
2023-05-08T06:37:27.794Z,4.40
2023-05-08T06:42:33.414Z,4.47
2023-05-08T06:47:37.784Z,4.38
2023-05-08T06:52:42.469Z,4.28
2023-05-08T06:57:50.723Z,4.25
2023-05-08T07:02:54.915Z,4.55
2023-05-08T07:08:10.539Z,4.22
2023-05-08T08:00:33.598Z,4.80
2023-05-08T08:14:18.037Z,4.70
2023-05-08T08:20:18.319Z,6.28
2023-05-08T08:26:32.844Z,5.00
2023-05-08T08:38:03.283Z,6.38
2023-05-08T08:44:01.104Z,6.28
2023-05-08T08:49:48.137Z,5.80
2023-05-08T08:55:44.202Z,5.78
2023-05-08T09:01:36.130Z,5.30
2023-05-08T09:13:35.255Z,6.07
2023-05-08T09:18:39.928Z,6.00
2023-05-08T09:24:29.103Z,7.15
2023-05-08T09:56:57.989Z,5.70
2023-05-08T10:08:42.643Z,6.00
2023-05-08T10:14:30.661Z,5.93
2023-05-08T10:19:36.031Z,5.90
2023-05-08T10:38:19.917Z,6.33
2023-05-08T10:50:07.375Z,6.65
2023-05-08T10:55:21.094Z,7.15
2023-05-08T11:00:26.282Z,6.63
2023-05-08T11:05:29.953Z,6.35
2023-05-08T11:24:20.212Z,7.28
2023-05-08T11:29:39.518Z,8.18
2023-05-08T11:41:53.726Z,7.90
2023-05-08T11:47:07.333Z,8.05
2023-05-08T11:52:14.066Z,8.43
2023-05-08T11:57:21.943Z,9.30
2023-05-08T12:02:47.671Z,8.73
2023-05-08T12:08:06.586Z,9.38
2023-05-08T12:13:25.407Z,9.93
2023-05-08T12:19:00.763Z,10.50
2023-05-08T12:24:15.769Z,10.23
2023-05-08T12:35:50.996Z,9.93
2023-05-08T13:01:19.046Z,11.23
2023-05-08T13:06:53.033Z,10.63
2023-05-08T13:11:55.988Z,11.68
2023-05-08T13:17:42.751Z,10.85
2023-05-08T13:56:25.055Z,7.97
2023-05-08T14:01:28.500Z,7.93
2023-05-08T14:06:32.613Z,8.55
2023-05-08T14:11:37.840Z,8.32
2023-05-08T14:16:41.726Z,7.30
2023-05-08T14:21:45.568Z,7.82
2023-05-08T14:26:50.517Z,8.40
2023-05-08T14:31:54.085Z,8.77
2023-05-08T14:36:57.657Z,8.50
2023-05-08T14:47:10.423Z,8.95
2023-05-08T14:52:13.963Z,8.25
2023-05-08T14:57:18.998Z,8.27
2023-05-08T15:02:22.681Z,8.20
2023-05-08T15:07:26.248Z,8.52
2023-05-08T15:12:31.207Z,8.25
2023-05-08T15:17:36.526Z,8.02
2023-05-08T15:22:40.724Z,8.25
2023-05-08T15:27:46.017Z,7.65
2023-05-08T15:32:49.586Z,9.30
2023-05-08T15:37:53.351Z,8.40
2023-05-08T15:42:58.612Z,8.13
2023-05-08T15:48:02.095Z,7.70
2023-05-08T15:53:05.831Z,7.38
2023-05-08T15:58:10.721Z,7.43
2023-05-08T16:03:15.820Z,7.93
2023-05-08T16:08:21.714Z,7.55
2023-05-08T16:13:26.678Z,6.35
2023-05-08T16:18:30.140Z,7.25
2023-05-08T16:23:33.696Z,6.97
2023-05-08T16:28:38.729Z,7.47
2023-05-08T16:33:42.244Z,7.28
2023-05-08T16:38:45.717Z,8.52
2023-05-08T16:43:50.557Z,8.40
2023-05-08T16:48:54.005Z,8.27
2023-05-08T16:53:58.148Z,8.93
2023-05-08T16:59:06.467Z,9.13
2023-05-08T17:04:10.330Z,9.45
2023-05-08T17:09:13.826Z,8.60
2023-05-08T17:14:18.757Z,8.50
2023-05-08T17:19:22.207Z,8.50
2023-05-08T17:24:25.788Z,8.70
2023-05-08T17:29:30.724Z,8.35
2023-05-08T17:34:34.264Z,9.10
2023-05-08T17:39:37.707Z,8.50
2023-05-08T17:44:42.722Z,9.05
2023-05-08T17:49:46.249Z,8.32
2023-05-08T17:54:51.836Z,8.25
2023-05-08T17:59:56.670Z,8.60
2023-05-08T18:05:00.221Z,8.25
2023-05-08T18:10:03.863Z,8.00
2023-05-08T18:15:09.767Z,8.75
2023-05-08T18:20:14.039Z,9.27
2023-05-08T18:25:18.030Z,8.63
2023-05-08T18:30:22.895Z,8.90
2023-05-08T18:35:26.519Z,8.40
2023-05-08T18:40:30.032Z,9.73
2023-05-08T18:45:34.787Z,9.02
2023-05-08T18:50:38.468Z,8.68
2023-05-08T18:55:42.142Z,9.00
2023-05-08T19:00:47.025Z,9.23
2023-05-08T19:05:51.273Z,8.93
2023-05-08T19:10:54.784Z,8.73
2023-05-08T19:15:59.770Z,8.90
2023-05-08T19:21:03.336Z,9.45
2023-05-08T19:26:07.249Z,10.52
2023-05-08T19:31:12.200Z,8.18
2023-05-08T19:36:15.729Z,8.00
2023-05-08T19:41:19.292Z,8.50
2023-05-08T19:46:24.214Z,9.20
2023-05-08T19:51:27.735Z,9.52
2023-05-08T19:56:31.159Z,10.45
2023-05-08T20:01:36.164Z,9.32
2023-05-08T20:06:39.980Z,9.15
2023-05-08T20:11:43.451Z,8.85
2023-05-08T20:16:48.323Z,9.70
2023-05-08T20:21:51.853Z,9.15
2023-05-08T20:26:56.298Z,8.55
2023-05-08T20:32:01.152Z,9.05
2023-05-08T20:37:04.674Z,9.25
2023-05-08T20:42:08.130Z,9.35
2023-05-08T20:47:12.919Z,8.45
2023-05-08T20:52:16.505Z,10.07
2023-05-08T20:57:19.971Z,8.98
2023-05-08T21:02:24.800Z,9.50
2023-05-08T21:07:28.282Z,8.98
2023-05-08T21:12:31.764Z,9.73
2023-05-08T21:17:36.845Z,10.00
2023-05-08T21:22:40.361Z,8.73
2023-05-08T21:27:55.156Z,9.73
2023-05-08T21:33:00.405Z,8.90
2023-05-08T21:38:05.698Z,8.63
2023-05-08T21:43:09.281Z,10.50
2023-05-08T21:48:14.045Z,10.15
2023-05-08T21:53:17.677Z,10.48
2023-05-08T21:58:21.146Z,9.95
2023-05-08T22:03:26.037Z,9.93
2023-05-08T22:08:29.526Z,8.70
2023-05-08T22:13:32.930Z,8.75
2023-05-08T22:18:37.765Z,8.60
2023-05-08T22:23:41.233Z,8.90
2023-05-08T22:28:45.166Z,9.75
2023-05-08T22:33:50.009Z,7.50
2023-05-08T22:38:54.534Z,10.05
2023-05-08T22:43:58.494Z,7.47
2023-05-08T22:49:03.540Z,8.40
2023-05-08T22:54:07.534Z,7.68
2023-05-08T22:59:13.694Z,7.93
2023-05-08T23:04:20.128Z,7.68
2023-05-08T23:09:23.896Z,8.00
2023-05-08T23:15:22.598Z,8.13
2023-05-08T23:20:27.430Z,9.57
2023-05-08T23:25:30.950Z,8.85
2023-05-08T23:30:34.531Z,9.02
2023-05-08T23:35:39.296Z,8.98
2023-05-08T23:40:42.652Z,9.52
2023-05-08T23:45:46.066Z,9.95
2023-05-08T23:50:50.886Z,9.98
2023-05-08T23:55:54.308Z,11.02
